sensor_id;sensor_type;location;lat;lon;timestamp;P1;durP1;ratioP1;P2;durP2;ratioP2
8353;SDS011;4656;48.090;11.498;2023-02-01T00:01:37;0.20;;;0.20;;
8353;SDS011;4656;48.090;11.498;2023-02-01T00:03:40;0.70;;;0.70;;
8353;SDS011;4656;48.090;11.498;2023-02-01T00:05:42;0.30;;;0.30;;
8353;SDS011;4656;48.090;11.498;2023-02-01T00:07:46;0.55;;;0.55;;
8353;SDS011;4656;48.090;11.498;2023-02-01T00:09:48;0.40;;;0.40;;
8353;SDS011;4656;48.090;11.498;2023-02-01T00:11:51;0.65;;;0.65;;
8353;SDS011;4656;48.090;11.498;2023-02-01T00:13:53;0.70;;;0.50;;
8353;SDS011;4656;48.090;11.498;2023-02-01T00:16:01;0.77;;;0.77;;
8353;SDS011;4656;48.090;11.498;2023-02-01T00:18:03;0.40;;;0.40;;
8353;SDS011;4656;48.090;11.498;2023-02-01T00:20:06;0.40;;;0.40;;
8353;SDS011;4656;48.090;11.498;2023-02-01T00:22:08;0.38;;;0.38;;
8353;SDS011;4656;48.090;11.498;2023-02-01T00:24:10;0.40;;;0.40;;
8353;SDS011;4656;48.090;11.498;2023-02-01T00:26:14;0.35;;;0.35;;
8353;SDS011;4656;48.090;11.498;2023-02-01T00:28:17;0.20;;;0.20;;
8353;SDS011;4656;48.090;11.498;2023-02-01T00:30:19;0.20;;;0.20;;
8353;SDS011;4656;48.090;11.498;2023-02-01T00:32:23;0.20;;;0.20;;
8353;SDS011;4656;48.090;11.498;2023-02-01T00:34:25;0.30;;;0.30;;
8353;SDS011;4656;48.090;11.498;2023-02-01T00:36:27;0.70;;;0.70;;
8353;SDS011;4656;48.090;11.498;2023-02-01T00:38:30;0.20;;;0.20;;
8353;SDS011;4656;48.090;11.498;2023-02-01T00:40:33;0.30;;;0.30;;
8353;SDS011;4656;48.090;11.498;2023-02-01T00:42:35;0.30;;;0.30;;
8353;SDS011;4656;48.090;11.498;2023-02-01T00:44:37;0.30;;;0.30;;
8353;SDS011;4656;48.090;11.498;2023-02-01T00:46:39;0.55;;;0.45;;
8353;SDS011;4656;48.090;11.498;2023-02-01T00:48:43;0.40;;;0.40;;
8353;SDS011;4656;48.090;11.498;2023-02-01T00:50:45;0.25;;;0.25;;
8353;SDS011;4656;48.090;11.498;2023-02-01T00:52:47;0.60;;;0.60;;
8353;SDS011;4656;48.090;11.498;2023-02-01T00:54:50;0.60;;;0.60;;
8353;SDS011;4656;48.090;11.498;2023-02-01T00:56:52;0.40;;;0.40;;
8353;SDS011;4656;48.090;11.498;2023-02-01T00:58:54;0.60;;;0.60;;
8353;SDS011;4656;48.090;11.498;2023-02-01T01:01:00;0.60;;;0.60;;
8353;SDS011;4656;48.090;11.498;2023-02-01T01:03:03;0.25;;;0.25;;
8353;SDS011;4656;48.090;11.498;2023-02-01T01:05:18;0.60;;;0.60;;
8353;SDS011;4656;48.090;11.498;2023-02-01T01:07:21;6.70;;;4.60;;
8353;SDS011;4656;48.090;11.498;2023-02-01T01:09:23;6.55;;;4.75;;
8353;SDS011;4656;48.090;11.498;2023-02-01T01:11:26;8.45;;;5.20;;
8353;SDS011;4656;48.090;11.498;2023-02-01T01:13:28;7.78;;;5.78;;
8353;SDS011;4656;48.090;11.498;2023-02-01T01:15:30;8.98;;;5.65;;
8353;SDS011;4656;48.090;11.498;2023-02-01T01:17:32;9.52;;;5.43;;
8353;SDS011;4656;48.090;11.498;2023-02-01T01:19:35;8.80;;;5.83;;
8353;SDS011;4656;48.090;11.498;2023-02-01T01:21:38;8.40;;;5.50;;
8353;SDS011;4656;48.090;11.498;2023-02-01T01:23:42;12.85;;;6.50;;
8353;SDS011;4656;48.090;11.498;2023-02-01T01:25:45;10.98;;;6.28;;
8353;SDS011;4656;48.090;11.498;2023-02-01T01:27:47;8.68;;;5.95;;
8353;SDS011;4656;48.090;11.498;2023-02-01T01:29:49;11.23;;;5.67;;
8353;SDS011;4656;48.090;11.498;2023-02-01T01:31:51;11.27;;;6.47;;
8353;SDS011;4656;48.090;11.498;2023-02-01T01:33:54;10.00;;;6.80;;
8353;SDS011;4656;48.090;11.498;2023-02-01T01:35:57;10.70;;;6.82;;
8353;SDS011;4656;48.090;11.498;2023-02-01T01:38:01;12.13;;;7.13;;
8353;SDS011;4656;48.090;11.498;2023-02-01T01:40:03;13.13;;;7.45;;
8353;SDS011;4656;48.090;11.498;2023-02-01T01:42:07;11.95;;;7.57;;
8353;SDS011;4656;48.090;11.498;2023-02-01T01:46:27;11.38;;;7.20;;
8353;SDS011;4656;48.090;11.498;2023-02-01T01:48:30;12.57;;;7.15;;
8353;SDS011;4656;48.090;11.498;2023-02-01T01:50:33;12.73;;;7.63;;
8353;SDS011;4656;48.090;11.498;2023-02-01T01:52:37;12.65;;;7.78;;
8353;SDS011;4656;48.090;11.498;2023-02-01T01:54:42;13.07;;;7.90;;
8353;SDS011;4656;48.090;11.498;2023-02-01T01:56:45;14.07;;;7.85;;
8353;SDS011;4656;48.090;11.498;2023-02-01T01:58:49;14.98;;;8.18;;
8353;SDS011;4656;48.090;11.498;2023-02-01T02:00:51;15.32;;;7.85;;
8353;SDS011;4656;48.090;11.498;2023-02-01T02:02:54;12.50;;;7.93;;
8353;SDS011;4656;48.090;11.498;2023-02-01T02:04:58;12.80;;;7.95;;
8353;SDS011;4656;48.090;11.498;2023-02-01T02:07:01;14.77;;;7.63;;
8353;SDS011;4656;48.090;11.498;2023-02-01T02:09:04;11.10;;;7.28;;
8353;SDS011;4656;48.090;11.498;2023-02-01T02:11:08;12.20;;;7.75;;
8353;SDS011;4656;48.090;11.498;2023-02-01T02:13:11;11.88;;;7.82;;
8353;SDS011;4656;48.090;11.498;2023-02-01T02:15:15;11.52;;;7.70;;
8353;SDS011;4656;48.090;11.498;2023-02-01T02:17:26;14.90;;;8.20;;
8353;SDS011;4656;48.090;11.498;2023-02-01T02:19:36;12.20;;;7.63;;
8353;SDS011;4656;48.090;11.498;2023-02-01T02:21:45;13.73;;;8.13;;
8353;SDS011;4656;48.090;11.498;2023-02-01T02:24:03;12.90;;;7.45;;
8353;SDS011;4656;48.090;11.498;2023-02-01T02:26:12;11.80;;;7.85;;
8353;SDS011;4656;48.090;11.498;2023-02-01T02:33:17;13.40;;;7.60;;
8353;SDS011;4656;48.090;11.498;2023-02-01T02:35:23;10.90;;;6.97;;
8353;SDS011;4656;48.090;11.498;2023-02-01T02:37:31;11.50;;;7.40;;
8353;SDS011;4656;48.090;11.498;2023-02-01T02:39:39;11.65;;;7.15;;
8353;SDS011;4656;48.090;11.498;2023-02-01T02:41:46;10.02;;;6.93;;
8353;SDS011;4656;48.090;11.498;2023-02-01T02:44:08;10.25;;;7.05;;
8353;SDS011;4656;48.090;11.498;2023-02-01T02:46:32;13.77;;;7.68;;
8353;SDS011;4656;48.090;11.498;2023-02-01T02:48:57;9.88;;;6.38;;
8353;SDS011;4656;48.090;11.498;2023-02-01T02:51:03;10.20;;;7.40;;
8353;SDS011;4656;48.090;11.498;2023-02-01T02:53:27;10.15;;;7.13;;
8353;SDS011;4656;48.090;11.498;2023-02-01T02:55:50;10.27;;;7.20;;
8353;SDS011;4656;48.090;11.498;2023-02-01T02:57:52;10.90;;;6.60;;
8353;SDS011;4656;48.090;11.498;2023-02-01T03:00:14;9.68;;;6.50;;
8353;SDS011;4656;48.090;11.498;2023-02-01T03:02:34;10.23;;;7.00;;
8353;SDS011;4656;48.090;11.498;2023-02-01T03:04:56;9.27;;;6.60;;
8353;SDS011;4656;48.090;11.498;2023-02-01T03:07:09;10.73;;;6.95;;
8353;SDS011;4656;48.090;11.498;2023-02-01T03:09:14;10.32;;;6.43;;
8353;SDS011;4656;48.090;11.498;2023-02-01T03:11:20;9.23;;;6.60;;
8353;SDS011;4656;48.090;11.498;2023-02-01T03:13:25;9.45;;;6.05;;
8353;SDS011;4656;48.090;11.498;2023-02-01T03:15:31;10.65;;;6.97;;
8353;SDS011;4656;48.090;11.498;2023-02-01T03:17:35;8.88;;;6.28;;
8353;SDS011;4656;48.090;11.498;2023-02-01T03:19:39;9.30;;;6.03;;
8353;SDS011;4656;48.090;11.498;2023-02-01T03:21:45;8.45;;;6.47;;
8353;SDS011;4656;48.090;11.498;2023-02-01T03:23:50;8.07;;;6.18;;
8353;SDS011;4656;48.090;11.498;2023-02-01T03:25:55;9.48;;;6.18;;
8353;SDS011;4656;48.090;11.498;2023-02-01T03:27:59;9.13;;;6.00;;
8353;SDS011;4656;48.090;11.498;2023-02-01T03:30:03;9.13;;;6.40;;
8353;SDS011;4656;48.090;11.498;2023-02-01T03:32:07;8.73;;;6.00;;
8353;SDS011;4656;48.090;11.498;2023-02-01T03:34:10;8.15;;;5.93;;
8353;SDS011;4656;48.090;11.498;2023-02-01T03:36:15;8.98;;;5.63;;
8353;SDS011;4656;48.090;11.498;2023-02-01T03:38:20;6.95;;;5.35;;
8353;SDS011;4656;48.090;11.498;2023-02-01T03:40:25;6.95;;;5.50;;
8353;SDS011;4656;48.090;11.498;2023-02-01T03:42:29;7.25;;;5.18;;
8353;SDS011;4656;48.090;11.498;2023-02-01T03:44:34;7.22;;;5.35;;
8353;SDS011;4656;48.090;11.498;2023-02-01T03:46:37;5.63;;;4.95;;
8353;SDS011;4656;48.090;11.498;2023-02-01T03:48:41;6.20;;;5.03;;
8353;SDS011;4656;48.090;11.498;2023-02-01T03:50:44;6.55;;;5.20;;
8353;SDS011;4656;48.090;11.498;2023-02-01T03:52:50;7.25;;;5.07;;
8353;SDS011;4656;48.090;11.498;2023-02-01T03:54:55;7.53;;;5.50;;
8353;SDS011;4656;48.090;11.498;2023-02-01T03:56:59;5.70;;;4.68;;
8353;SDS011;4656;48.090;11.498;2023-02-01T03:59:02;6.68;;;5.20;;
8353;SDS011;4656;48.090;11.498;2023-02-01T04:01:04;10.07;;;5.18;;
8353;SDS011;4656;48.090;11.498;2023-02-01T04:03:07;6.97;;;5.18;;
8353;SDS011;4656;48.090;11.498;2023-02-01T04:05:09;6.27;;;5.00;;
8353;SDS011;4656;48.090;11.498;2023-02-01T04:07:11;7.55;;;5.38;;
8353;SDS011;4656;48.090;11.498;2023-02-01T04:09:13;5.57;;;4.65;;
8353;SDS011;4656;48.090;11.498;2023-02-01T04:11:20;6.30;;;4.50;;
8353;SDS011;4656;48.090;11.498;2023-02-01T04:13:22;7.25;;;5.10;;
8353;SDS011;4656;48.090;11.498;2023-02-01T04:15:24;6.30;;;4.85;;
8353;SDS011;4656;48.090;11.498;2023-02-01T04:17:26;6.88;;;5.00;;
8353;SDS011;4656;48.090;11.498;2023-02-01T04:19:28;5.00;;;4.30;;
8353;SDS011;4656;48.090;11.498;2023-02-01T04:21:30;6.38;;;4.70;;
8353;SDS011;4656;48.090;11.498;2023-02-01T04:23:33;6.80;;;4.95;;
8353;SDS011;4656;48.090;11.498;2023-02-01T04:25:36;7.20;;;4.70;;
8353;SDS011;4656;48.090;11.498;2023-02-01T04:27:39;6.30;;;4.70;;
8353;SDS011;4656;48.090;11.498;2023-02-01T04:29:42;6.32;;;5.03;;
8353;SDS011;4656;48.090;11.498;2023-02-01T04:31:45;9.25;;;4.93;;
8353;SDS011;4656;48.090;11.498;2023-02-01T04:33:47;6.30;;;4.53;;
8353;SDS011;4656;48.090;11.498;2023-02-01T04:35:49;5.85;;;4.32;;
8353;SDS011;4656;48.090;11.498;2023-02-01T04:37:51;7.38;;;4.85;;
8353;SDS011;4656;48.090;11.498;2023-02-01T04:39:53;6.82;;;5.03;;
8353;SDS011;4656;48.090;11.498;2023-02-01T04:41:55;6.45;;;4.80;;
8353;SDS011;4656;48.090;11.498;2023-02-01T04:43:59;8.45;;;4.78;;
8353;SDS011;4656;48.090;11.498;2023-02-01T04:46:01;6.63;;;4.50;;
8353;SDS011;4656;48.090;11.498;2023-02-01T04:48:04;6.90;;;4.68;;
8353;SDS011;4656;48.090;11.498;2023-02-01T04:50:07;8.02;;;4.88;;
8353;SDS011;4656;48.090;11.498;2023-02-01T04:52:10;5.60;;;4.57;;
8353;SDS011;4656;48.090;11.498;2023-02-01T04:54:12;6.57;;;4.65;;
8353;SDS011;4656;48.090;11.498;2023-02-01T04:56:15;6.65;;;4.95;;
8353;SDS011;4656;48.090;11.498;2023-02-01T04:58:17;6.22;;;4.63;;
8353;SDS011;4656;48.090;11.498;2023-02-01T05:00:20;7.78;;;4.65;;
8353;SDS011;4656;48.090;11.498;2023-02-01T05:02:23;7.55;;;4.70;;
8353;SDS011;4656;48.090;11.498;2023-02-01T05:04:25;5.82;;;4.82;;
8353;SDS011;4656;48.090;11.498;2023-02-01T05:06:30;5.97;;;4.85;;
8353;SDS011;4656;48.090;11.498;2023-02-01T05:08:32;8.10;;;5.00;;
8353;SDS011;4656;48.090;11.498;2023-02-01T05:10:34;6.55;;;4.93;;
8353;SDS011;4656;48.090;11.498;2023-02-01T05:12:37;7.05;;;5.18;;
8353;SDS011;4656;48.090;11.498;2023-02-01T05:14:56;6.38;;;4.70;;
8353;SDS011;4656;48.090;11.498;2023-02-01T05:17:00;7.90;;;4.90;;
8353;SDS011;4656;48.090;11.498;2023-02-01T05:19:02;6.25;;;4.35;;
8353;SDS011;4656;48.090;11.498;2023-02-01T05:21:04;5.32;;;4.78;;
8353;SDS011;4656;48.090;11.498;2023-02-01T05:23:07;6.47;;;5.05;;
8353;SDS011;4656;48.090;11.498;2023-02-01T05:25:09;6.32;;;4.93;;
8353;SDS011;4656;48.090;11.498;2023-02-01T05:27:11;6.78;;;4.90;;
8353;SDS011;4656;48.090;11.498;2023-02-01T05:29:27;6.65;;;5.10;;
8353;SDS011;4656;48.090;11.498;2023-02-01T05:31:29;6.68;;;4.82;;
8353;SDS011;4656;48.090;11.498;2023-02-01T05:33:33;5.93;;;4.78;;
8353;SDS011;4656;48.090;11.498;2023-02-01T05:35:35;6.57;;;5.15;;
8353;SDS011;4656;48.090;11.498;2023-02-01T05:37:37;7.43;;;4.63;;
8353;SDS011;4656;48.090;11.498;2023-02-01T05:39:39;6.13;;;4.38;;
8353;SDS011;4656;48.090;11.498;2023-02-01T05:41:41;6.22;;;4.95;;
8353;SDS011;4656;48.090;11.498;2023-02-01T05:43:44;6.85;;;4.85;;
8353;SDS011;4656;48.090;11.498;2023-02-01T05:45:46;6.25;;;4.90;;
8353;SDS011;4656;48.090;11.498;2023-02-01T05:47:48;6.85;;;5.00;;
8353;SDS011;4656;48.090;11.498;2023-02-01T05:49:51;7.15;;;4.70;;
8353;SDS011;4656;48.090;11.498;2023-02-01T05:51:54;6.85;;;4.93;;
8353;SDS011;4656;48.090;11.498;2023-02-01T05:53:56;6.57;;;5.23;;
8353;SDS011;4656;48.090;11.498;2023-02-01T05:55:58;5.35;;;4.45;;
8353;SDS011;4656;48.090;11.498;2023-02-01T05:58:00;5.80;;;4.72;;
8353;SDS011;4656;48.090;11.498;2023-02-01T06:00:05;6.95;;;4.43;;
8353;SDS011;4656;48.090;11.498;2023-02-01T06:02:07;5.65;;;4.43;;
8353;SDS011;4656;48.090;11.498;2023-02-01T06:04:10;5.65;;;4.47;;
8353;SDS011;4656;48.090;11.498;2023-02-01T06:06:13;6.47;;;4.60;;
8353;SDS011;4656;48.090;11.498;2023-02-01T06:08:15;6.20;;;4.70;;
8353;SDS011;4656;48.090;11.498;2023-02-01T06:10:18;5.90;;;4.47;;
8353;SDS011;4656;48.090;11.498;2023-02-01T06:12:20;6.57;;;4.20;;
8353;SDS011;4656;48.090;11.498;2023-02-01T06:14:22;6.50;;;4.80;;
8353;SDS011;4656;48.090;11.498;2023-02-01T06:16:24;7.18;;;4.85;;
8353;SDS011;4656;48.090;11.498;2023-02-01T06:18:26;7.05;;;4.97;;
8353;SDS011;4656;48.090;11.498;2023-02-01T06:20:29;6.05;;;4.60;;
8353;SDS011;4656;48.090;11.498;2023-02-01T06:22:33;6.50;;;4.57;;
8353;SDS011;4656;48.090;11.498;2023-02-01T06:24:36;8.48;;;5.05;;
8353;SDS011;4656;48.090;11.498;2023-02-01T06:26:38;5.88;;;4.63;;
8353;SDS011;4656;48.090;11.498;2023-02-01T06:28:40;5.97;;;4.63;;
8353;SDS011;4656;48.090;11.498;2023-02-01T06:30:42;5.70;;;4.40;;
8353;SDS011;4656;48.090;11.498;2023-02-01T06:32:49;6.30;;;4.63;;
8353;SDS011;4656;48.090;11.498;2023-02-01T06:34:53;6.07;;;4.30;;
8353;SDS011;4656;48.090;11.498;2023-02-01T06:36:56;6.95;;;4.63;;
8353;SDS011;4656;48.090;11.498;2023-02-01T06:39:00;5.05;;;4.53;;
8353;SDS011;4656;48.090;11.498;2023-02-01T06:41:02;6.53;;;4.78;;
8353;SDS011;4656;48.090;11.498;2023-02-01T06:43:05;6.18;;;4.00;;
8353;SDS011;4656;48.090;11.498;2023-02-01T06:45:07;6.35;;;4.30;;
8353;SDS011;4656;48.090;11.498;2023-02-01T06:47:10;5.22;;;4.38;;
8353;SDS011;4656;48.090;11.498;2023-02-01T06:49:12;7.32;;;4.80;;
8353;SDS011;4656;48.090;11.498;2023-02-01T06:51:24;6.32;;;3.90;;
8353;SDS011;4656;48.090;11.498;2023-02-01T06:53:26;5.57;;;4.05;;
8353;SDS011;4656;48.090;11.498;2023-02-01T06:55:30;5.75;;;4.40;;
8353;SDS011;4656;48.090;11.498;2023-02-01T06:57:32;5.65;;;4.32;;
8353;SDS011;4656;48.090;11.498;2023-02-01T06:59:35;5.55;;;4.10;;
8353;SDS011;4656;48.090;11.498;2023-02-01T07:01:37;5.27;;;4.27;;
8353;SDS011;4656;48.090;11.498;2023-02-01T07:03:40;5.78;;;4.05;;
8353;SDS011;4656;48.090;11.498;2023-02-01T07:05:42;5.57;;;4.90;;
8353;SDS011;4656;48.090;11.498;2023-02-01T07:07:44;5.38;;;4.10;;
8353;SDS011;4656;48.090;11.498;2023-02-01T07:09:46;8.18;;;4.15;;
8353;SDS011;4656;48.090;11.498;2023-02-01T07:11:50;5.80;;;3.90;;
8353;SDS011;4656;48.090;11.498;2023-02-01T07:13:52;5.80;;;3.90;;
8353;SDS011;4656;48.090;11.498;2023-02-01T07:15:56;5.82;;;4.15;;
8353;SDS011;4656;48.090;11.498;2023-02-01T07:17:59;7.50;;;4.13;;
8353;SDS011;4656;48.090;11.498;2023-02-01T07:20:01;4.65;;;3.78;;
8353;SDS011;4656;48.090;11.498;2023-02-01T07:22:03;5.35;;;3.60;;
8353;SDS011;4656;48.090;11.498;2023-02-01T07:24:05;4.80;;;3.50;;
8353;SDS011;4656;48.090;11.498;2023-02-01T07:26:09;4.95;;;3.70;;
8353;SDS011;4656;48.090;11.498;2023-02-01T07:28:13;6.47;;;3.60;;
8353;SDS011;4656;48.090;11.498;2023-02-01T07:30:16;5.37;;;3.60;;
8353;SDS011;4656;48.090;11.498;2023-02-01T07:32:18;5.20;;;3.60;;
8353;SDS011;4656;48.090;11.498;2023-02-01T07:34:20;4.95;;;3.53;;
8353;SDS011;4656;48.090;11.498;2023-02-01T07:36:22;4.00;;;2.90;;
8353;SDS011;4656;48.090;11.498;2023-02-01T07:38:24;4.55;;;3.25;;
8353;SDS011;4656;48.090;11.498;2023-02-01T07:40:28;3.70;;;2.97;;
8353;SDS011;4656;48.090;11.498;2023-02-01T07:42:30;5.35;;;3.17;;
8353;SDS011;4656;48.090;11.498;2023-02-01T07:44:33;3.90;;;3.20;;
8353;SDS011;4656;48.090;11.498;2023-02-01T07:46:36;5.85;;;3.30;;
8353;SDS011;4656;48.090;11.498;2023-02-01T07:48:39;3.65;;;2.80;;
8353;SDS011;4656;48.090;11.498;2023-02-01T07:50:41;4.10;;;3.10;;
8353;SDS011;4656;48.090;11.498;2023-02-01T07:52:43;3.83;;;3.00;;
8353;SDS011;4656;48.090;11.498;2023-02-01T07:54:45;4.30;;;3.10;;
8353;SDS011;4656;48.090;11.498;2023-02-01T07:56:48;3.47;;;2.78;;
8353;SDS011;4656;48.090;11.498;2023-02-01T07:58:50;3.25;;;2.40;;
8353;SDS011;4656;48.090;11.498;2023-02-01T08:00:54;2.90;;;2.60;;
8353;SDS011;4656;48.090;11.498;2023-02-01T08:03:14;2.88;;;2.38;;
8353;SDS011;4656;48.090;11.498;2023-02-01T08:05:16;3.87;;;2.93;;
8353;SDS011;4656;48.090;11.498;2023-02-01T08:07:18;3.75;;;2.60;;
8353;SDS011;4656;48.090;11.498;2023-02-01T08:09:22;3.22;;;2.45;;
8353;SDS011;4656;48.090;11.498;2023-02-01T08:11:25;2.65;;;2.30;;
8353;SDS011;4656;48.090;11.498;2023-02-01T08:13:27;3.20;;;2.40;;
8353;SDS011;4656;48.090;11.498;2023-02-01T08:15:29;2.90;;;2.40;;
8353;SDS011;4656;48.090;11.498;2023-02-01T08:17:33;3.22;;;2.28;;
8353;SDS011;4656;48.090;11.498;2023-02-01T08:19:35;3.97;;;2.60;;
8353;SDS011;4656;48.090;11.498;2023-02-01T08:21:37;2.83;;;2.50;;
8353;SDS011;4656;48.090;11.498;2023-02-01T08:23:40;3.70;;;2.80;;
8353;SDS011;4656;48.090;11.498;2023-02-01T08:25:42;3.00;;;2.30;;
8353;SDS011;4656;48.090;11.498;2023-02-01T08:27:45;2.50;;;2.30;;
8353;SDS011;4656;48.090;11.498;2023-02-01T08:29:47;2.70;;;2.35;;
8353;SDS011;4656;48.090;11.498;2023-02-01T08:31:49;2.67;;;2.22;;
8353;SDS011;4656;48.090;11.498;2023-02-01T08:33:54;3.10;;;2.50;;
8353;SDS011;4656;48.090;11.498;2023-02-01T08:35:56;3.75;;;2.60;;
8353;SDS011;4656;48.090;11.498;2023-02-01T08:37:58;2.90;;;2.33;;
8353;SDS011;4656;48.090;11.498;2023-02-01T08:40:00;2.50;;;2.17;;
8353;SDS011;4656;48.090;11.498;2023-02-01T08:42:03;3.10;;;2.42;;
8353;SDS011;4656;48.090;11.498;2023-02-01T08:44:23;2.60;;;2.37;;
8353;SDS011;4656;48.090;11.498;2023-02-01T08:46:25;2.65;;;2.20;;
8353;SDS011;4656;48.090;11.498;2023-02-01T08:48:28;4.20;;;2.60;;
8353;SDS011;4656;48.090;11.498;2023-02-01T08:50:31;3.80;;;2.50;;
8353;SDS011;4656;48.090;11.498;2023-02-01T08:52:33;2.58;;;2.38;;
8353;SDS011;4656;48.090;11.498;2023-02-01T08:54:36;3.58;;;2.80;;
8353;SDS011;4656;48.090;11.498;2023-02-01T08:56:39;2.60;;;2.40;;
8353;SDS011;4656;48.090;11.498;2023-02-01T08:58:41;3.25;;;2.55;;
8353;SDS011;4656;48.090;11.498;2023-02-01T09:00:43;3.75;;;2.60;;
8353;SDS011;4656;48.090;11.498;2023-02-01T09:02:48;3.13;;;2.65;;
8353;SDS011;4656;48.090;11.498;2023-02-01T09:04:50;2.50;;;2.30;;
8353;SDS011;4656;48.090;11.498;2023-02-01T09:06:53;2.75;;;2.55;;
8353;SDS011;4656;48.090;11.498;2023-02-01T09:08:56;3.90;;;2.50;;
8353;SDS011;4656;48.090;11.498;2023-02-01T09:10:58;4.05;;;2.80;;
8353;SDS011;4656;48.090;11.498;2023-02-01T09:13:01;3.40;;;2.47;;
8353;SDS011;4656;48.090;11.498;2023-02-01T09:15:04;2.67;;;2.20;;
8353;SDS011;4656;48.090;11.498;2023-02-01T09:17:07;3.03;;;2.47;;
8353;SDS011;4656;48.090;11.498;2023-02-01T09:19:09;2.78;;;2.40;;
8353;SDS011;4656;48.090;11.498;2023-02-01T09:21:11;3.70;;;2.40;;
8353;SDS011;4656;48.090;11.498;2023-02-01T09:23:14;2.55;;;2.35;;
8353;SDS011;4656;48.090;11.498;2023-02-01T09:25:17;3.70;;;2.50;;
8353;SDS011;4656;48.090;11.498;2023-02-01T09:27:19;3.00;;;2.22;;
8353;SDS011;4656;48.090;11.498;2023-02-01T09:29:21;2.57;;;2.30;;
8353;SDS011;4656;48.090;11.498;2023-02-01T09:31:23;3.58;;;2.53;;
8353;SDS011;4656;48.090;11.498;2023-02-01T09:33:26;2.63;;;2.33;;
8353;SDS011;4656;48.090;11.498;2023-02-01T09:35:29;3.03;;;2.35;;
8353;SDS011;4656;48.090;11.498;2023-02-01T09:37:31;3.22;;;2.50;;
8353;SDS011;4656;48.090;11.498;2023-02-01T09:39:35;2.65;;;2.30;;
8353;SDS011;4656;48.090;11.498;2023-02-01T09:41:39;2.30;;;2.10;;
8353;SDS011;4656;48.090;11.498;2023-02-01T09:43:45;3.17;;;2.20;;
8353;SDS011;4656;48.090;11.498;2023-02-01T09:45:51;2.60;;;2.22;;
8353;SDS011;4656;48.090;11.498;2023-02-01T09:47:58;2.33;;;2.13;;
8353;SDS011;4656;48.090;11.498;2023-02-01T09:50:02;2.33;;;2.13;;
8353;SDS011;4656;48.090;11.498;2023-02-01T09:52:05;3.55;;;2.47;;
8353;SDS011;4656;48.090;11.498;2023-02-01T09:54:11;3.08;;;2.10;;
8353;SDS011;4656;48.090;11.498;2023-02-01T09:56:18;2.67;;;2.20;;
8353;SDS011;4656;48.090;11.498;2023-02-01T09:58:22;2.83;;;2.00;;
8353;SDS011;4656;48.090;11.498;2023-02-01T10:00:27;3.28;;;2.13;;
8353;SDS011;4656;48.090;11.498;2023-02-01T10:02:31;4.70;;;2.50;;
8353;SDS011;4656;48.090;11.498;2023-02-01T10:04:38;3.85;;;2.92;;
8353;SDS011;4656;48.090;11.498;2023-02-01T10:06:43;3.63;;;2.42;;
8353;SDS011;4656;48.090;11.498;2023-02-01T10:08:55;3.10;;;2.23;;
8353;SDS011;4656;48.090;11.498;2023-02-01T10:11:02;2.67;;;2.28;;
8353;SDS011;4656;48.090;11.498;2023-02-01T10:13:14;4.57;;;2.37;;
8353;SDS011;4656;48.090;11.498;2023-02-01T10:15:20;3.00;;;2.15;;
8353;SDS011;4656;48.090;11.498;2023-02-01T10:17:29;3.10;;;2.45;;
8353;SDS011;4656;48.090;11.498;2023-02-01T10:19:38;2.95;;;2.33;;
8353;SDS011;4656;48.090;11.498;2023-02-01T10:21:45;2.95;;;2.42;;
8353;SDS011;4656;48.090;11.498;2023-02-01T10:23:53;3.42;;;2.22;;
8353;SDS011;4656;48.090;11.498;2023-02-01T10:25:59;3.15;;;2.50;;
8353;SDS011;4656;48.090;11.498;2023-02-01T10:28:02;2.97;;;2.37;;
8353;SDS011;4656;48.090;11.498;2023-02-01T10:30:12;3.17;;;2.50;;
8353;SDS011;4656;48.090;11.498;2023-02-01T10:32:16;4.18;;;2.58;;
8353;SDS011;4656;48.090;11.498;2023-02-01T10:34:20;3.03;;;2.23;;
8353;SDS011;4656;48.090;11.498;2023-02-01T10:36:25;2.78;;;2.20;;
8353;SDS011;4656;48.090;11.498;2023-02-01T10:38:30;3.33;;;2.25;;
8353;SDS011;4656;48.090;11.498;2023-02-01T10:40:34;2.33;;;2.10;;
8353;SDS011;4656;48.090;11.498;2023-02-01T10:42:36;3.13;;;2.50;;
8353;SDS011;4656;48.090;11.498;2023-02-01T10:44:40;2.35;;;2.05;;
8353;SDS011;4656;48.090;11.498;2023-02-01T10:46:46;3.92;;;2.30;;
8353;SDS011;4656;48.090;11.498;2023-02-01T10:48:49;2.70;;;2.35;;
8353;SDS011;4656;48.090;11.498;2023-02-01T10:50:53;2.67;;;2.45;;
8353;SDS011;4656;48.090;11.498;2023-02-01T10:52:57;2.88;;;2.47;;
8353;SDS011;4656;48.090;11.498;2023-02-01T10:57:21;3.03;;;2.30;;
8353;SDS011;4656;48.090;11.498;2023-02-01T10:59:25;3.90;;;2.70;;
8353;SDS011;4656;48.090;11.498;2023-02-01T11:01:30;3.05;;;2.60;;
8353;SDS011;4656;48.090;11.498;2023-02-01T11:03:36;3.75;;;2.50;;
8353;SDS011;4656;48.090;11.498;2023-02-01T11:05:42;2.97;;;2.67;;
8353;SDS011;4656;48.090;11.498;2023-02-01T11:07:46;4.25;;;2.42;;
8353;SDS011;4656;48.090;11.498;2023-02-01T11:09:49;3.60;;;2.78;;
8353;SDS011;4656;48.090;11.498;2023-02-01T11:11:56;3.83;;;2.83;;
8353;SDS011;4656;48.090;11.498;2023-02-01T11:13:59;4.05;;;3.05;;
8353;SDS011;4656;48.090;11.498;2023-02-01T11:16:02;3.47;;;2.70;;
8353;SDS011;4656;48.090;11.498;2023-02-01T11:18:12;3.40;;;3.10;;
8353;SDS011;4656;48.090;11.498;2023-02-01T11:20:18;3.63;;;3.13;;
8353;SDS011;4656;48.090;11.498;2023-02-01T11:22:21;4.15;;;2.92;;
8353;SDS011;4656;48.090;11.498;2023-02-01T11:24:23;3.60;;;2.70;;
8353;SDS011;4656;48.090;11.498;2023-02-01T11:26:26;5.43;;;4.18;;
8353;SDS011;4656;48.090;11.498;2023-02-01T11:28:29;4.75;;;3.20;;
8353;SDS011;4656;48.090;11.498;2023-02-01T11:30:34;4.63;;;3.03;;
8353;SDS011;4656;48.090;11.498;2023-02-01T11:32:36;3.43;;;2.87;;
8353;SDS011;4656;48.090;11.498;2023-02-01T11:34:41;4.30;;;2.92;;
8353;SDS011;4656;48.090;11.498;2023-02-01T11:36:46;4.53;;;3.10;;
8353;SDS011;4656;48.090;11.498;2023-02-01T11:38:51;5.88;;;3.15;;
8353;SDS011;4656;48.090;11.498;2023-02-01T11:40:53;3.60;;;2.70;;
8353;SDS011;4656;48.090;11.498;2023-02-01T11:42:56;4.63;;;2.72;;
8353;SDS011;4656;48.090;11.498;2023-02-01T11:45:16;4.07;;;2.65;;
8353;SDS011;4656;48.090;11.498;2023-02-01T11:47:23;4.32;;;3.00;;
8353;SDS011;4656;48.090;11.498;2023-02-01T11:49:26;3.58;;;2.80;;
8353;SDS011;4656;48.090;11.498;2023-02-01T11:51:34;5.55;;;2.97;;
8353;SDS011;4656;48.090;11.498;2023-02-01T11:53:46;4.00;;;2.70;;
8353;SDS011;4656;48.090;11.498;2023-02-01T11:55:58;4.07;;;3.22;;
8353;SDS011;4656;48.090;11.498;2023-02-01T11:58:06;3.93;;;2.60;;
8353;SDS011;4656;48.090;11.498;2023-02-01T12:00:26;5.40;;;3.03;;
8353;SDS011;4656;48.090;11.498;2023-02-01T12:02:35;3.25;;;2.78;;
8353;SDS011;4656;48.090;11.498;2023-02-01T12:07:08;5.70;;;3.75;;
8353;SDS011;4656;48.090;11.498;2023-02-01T12:09:20;6.63;;;3.22;;
8353;SDS011;4656;48.090;11.498;2023-02-01T12:11:36;4.53;;;2.70;;
8353;SDS011;4656;48.090;11.498;2023-02-01T12:13:48;6.13;;;3.15;;
8353;SDS011;4656;48.090;11.498;2023-02-01T12:15:55;6.33;;;2.90;;
8353;SDS011;4656;48.090;11.498;2023-02-01T12:18:02;3.47;;;2.97;;
8353;SDS011;4656;48.090;11.498;2023-02-01T12:20:10;5.95;;;3.47;;
8353;SDS011;4656;48.090;11.498;2023-02-01T12:22:22;4.40;;;2.80;;
8353;SDS011;4656;48.090;11.498;2023-02-01T12:24:34;5.13;;;2.80;;
8353;SDS011;4656;48.090;11.498;2023-02-01T12:26:42;4.63;;;2.85;;
8353;SDS011;4656;48.090;11.498;2023-02-01T12:28:53;6.43;;;3.30;;
8353;SDS011;4656;48.090;11.498;2023-02-01T12:31:08;3.33;;;2.63;;
8353;SDS011;4656;48.090;11.498;2023-02-01T12:33:15;4.65;;;3.13;;
8353;SDS011;4656;48.090;11.498;2023-02-01T12:35:23;5.70;;;2.70;;
8353;SDS011;4656;48.090;11.498;2023-02-01T12:37:33;5.68;;;2.83;;
8353;SDS011;4656;48.090;11.498;2023-02-01T12:39:46;6.28;;;3.00;;
8353;SDS011;4656;48.090;11.498;2023-02-01T12:41:55;5.20;;;2.80;;
8353;SDS011;4656;48.090;11.498;2023-02-01T12:43:59;6.05;;;2.85;;
8353;SDS011;4656;48.090;11.498;2023-02-01T12:46:07;4.05;;;3.08;;
8353;SDS011;4656;48.090;11.498;2023-02-01T12:48:18;5.30;;;2.72;;
8353;SDS011;4656;48.090;11.498;2023-02-01T12:50:23;5.03;;;2.42;;
8353;SDS011;4656;48.090;11.498;2023-02-01T12:52:27;3.60;;;2.60;;
8353;SDS011;4656;48.090;11.498;2023-02-01T12:54:35;7.03;;;2.65;;